sensor_id;sensor_type;location;lat;lon;timestamp;pressure;altitude;pressure_sealevel;temperature;humidity
58879;BME280;44660;42.664;23.266;2023-03-04T00:01:39;94564.94;;;6.13;74.37
58879;BME280;44660;42.664;23.266;2023-03-04T00:04:04;94575.91;;;6.10;74.63
58879;BME280;44660;42.664;23.266;2023-03-04T00:06:30;94564.38;;;6.04;74.62
58879;BME280;44660;42.664;23.266;2023-03-04T00:08:56;94589.59;;;6.26;74.37
58879;BME280;44660;42.664;23.266;2023-03-04T00:11:21;94587.56;;;6.28;74.44
58879;BME280;44660;42.664;23.266;2023-03-04T00:13:47;94534.53;;;5.97;74.56
58879;BME280;44660;42.664;23.266;2023-03-04T00:16:12;94571.16;;;6.19;74.36
58879;BME280;44660;42.664;23.266;2023-03-04T00:18:37;94563.13;;;6.07;74.65
58879;BME280;44660;42.664;23.266;2023-03-04T00:21:03;94563.09;;;6.14;74.91
58879;BME280;44660;42.664;23.266;2023-03-04T00:23:28;94526.28;;;5.87;74.76
58879;BME280;44660;42.664;23.266;2023-03-04T00:25:54;94576.66;;;6.17;74.69
58879;BME280;44660;42.664;23.266;2023-03-04T00:28:19;94517.59;;;5.80;74.61
58879;BME280;44660;42.664;23.266;2023-03-04T00:30:45;94560.91;;;6.04;74.71
58879;BME280;44660;42.664;23.266;2023-03-04T00:33:10;94576.72;;;6.11;74.97
58879;BME280;44660;42.664;23.266;2023-03-04T00:35:36;94481.63;;;5.53;74.70
58879;BME280;44660;42.664;23.266;2023-03-04T00:38:01;94574.44;;;6.14;74.81
58879;BME280;44660;42.664;23.266;2023-03-04T00:40:27;94559.03;;;6.11;74.92
58879;BME280;44660;42.664;23.266;2023-03-04T00:42:52;94557.25;;;6.05;74.72
58879;BME280;44660;42.664;23.266;2023-03-04T00:45:18;94573.97;;;6.24;74.78
58879;BME280;44660;42.664;23.266;2023-03-04T00:47:43;94555.31;;;6.19;74.25
58879;BME280;44660;42.664;23.266;2023-03-04T00:50:09;94574.97;;;6.30;74.18
58879;BME280;44660;42.664;23.266;2023-03-04T00:52:35;94574.75;;;6.31;74.08
58879;BME280;44660;42.664;23.266;2023-03-04T00:55:00;94567.03;;;6.30;74.16
58879;BME280;44660;42.664;23.266;2023-03-04T00:57:26;94567.03;;;6.30;74.27
58879;BME280;44660;42.664;23.266;2023-03-04T00:59:51;94558.75;;;6.19;74.15
58879;BME280;44660;42.664;23.266;2023-03-04T01:02:17;94533.06;;;6.08;74.37
58879;BME280;44660;42.664;23.266;2023-03-04T01:04:43;94557.72;;;6.27;74.32
58879;BME280;44660;42.664;23.266;2023-03-04T01:07:08;94553.66;;;6.25;74.05
58879;BME280;44660;42.664;23.266;2023-03-04T01:09:34;94549.25;;;6.18;74.30
58879;BME280;44660;42.664;23.266;2023-03-04T01:11:59;94530.25;;;6.03;74.47
58879;BME280;44660;42.664;23.266;2023-03-04T01:14:25;94562.63;;;6.24;74.18
58879;BME280;44660;42.664;23.266;2023-03-04T01:16:50;94549.50;;;6.10;74.49
58879;BME280;44660;42.664;23.266;2023-03-04T01:19:16;94537.13;;;6.11;74.50
58879;BME280;44660;42.664;23.266;2023-03-04T01:21:42;94555.44;;;6.31;74.48
58879;BME280;44660;42.664;23.266;2023-03-04T01:24:07;94546.78;;;6.24;74.41
58879;BME280;44660;42.664;23.266;2023-03-04T01:26:33;94544.66;;;6.07;73.86
58879;BME280;44660;42.664;23.266;2023-03-04T01:28:59;94547.56;;;6.24;73.41
58879;BME280;44660;42.664;23.266;2023-03-04T01:31:24;94527.75;;;6.15;73.55
58879;BME280;44660;42.664;23.266;2023-03-04T01:33:50;94538.03;;;6.23;73.25
58879;BME280;44660;42.664;23.266;2023-03-04T01:36:15;94534.59;;;6.23;73.20
58879;BME280;44660;42.664;23.266;2023-03-04T01:38:41;94530.53;;;6.20;73.00
58879;BME280;44660;42.664;23.266;2023-03-04T01:41:06;94541.91;;;6.20;73.35
58879;BME280;44660;42.664;23.266;2023-03-04T01:43:34;94519.72;;;5.96;73.58
58879;BME280;44660;42.664;23.266;2023-03-04T01:46:01;94535.44;;;6.16;73.18
58879;BME280;44660;42.664;23.266;2023-03-04T01:48:30;94527.34;;;6.11;73.08
58879;BME280;44660;42.664;23.266;2023-03-04T01:50:58;94517.22;;;6.08;72.67
58879;BME280;44660;42.664;23.266;2023-03-04T01:53:28;94528.53;;;6.15;72.75
58879;BME280;44660;42.664;23.266;2023-03-04T01:55:57;94533.41;;;6.18;72.78
58879;BME280;44660;42.664;23.266;2023-03-04T01:58:25;94531.56;;;6.19;72.33
58879;BME280;44660;42.664;23.266;2023-03-04T02:00:53;94540.28;;;6.19;72.49
58879;BME280;44660;42.664;23.266;2023-03-04T02:03:19;94538.09;;;6.16;72.60
58879;BME280;44660;42.664;23.266;2023-03-04T02:05:49;94518.91;;;5.96;72.62
58879;BME280;44660;42.664;23.266;2023-03-04T02:08:17;94532.09;;;6.02;73.09
58879;BME280;44660;42.664;23.266;2023-03-04T02:10:43;94507.59;;;5.88;73.07
58879;BME280;44660;42.664;23.266;2023-03-04T02:13:10;94524.16;;;6.02;73.07
58879;BME280;44660;42.664;23.266;2023-03-04T02:15:37;94529.06;;;5.99;73.17
58879;BME280;44660;42.664;23.266;2023-03-04T02:18:11;94523.53;;;6.07;73.23
58879;BME280;44660;42.664;23.266;2023-03-04T02:23:29;94521.47;;;6.09;73.39
58879;BME280;44660;42.664;23.266;2023-03-04T02:26:18;94490.13;;;5.87;73.57
58879;BME280;44660;42.664;23.266;2023-03-04T02:28:44;94515.00;;;6.05;73.65
58879;BME280;44660;42.664;23.266;2023-03-04T02:34:30;94520.13;;;6.00;73.72
58879;BME280;44660;42.664;23.266;2023-03-04T02:36:57;94497.09;;;5.82;73.94
58879;BME280;44660;42.664;23.266;2023-03-04T02:39:30;94506.63;;;5.83;73.86
58879;BME280;44660;42.664;23.266;2023-03-04T02:41:57;94501.97;;;5.78;74.27
58879;BME280;44660;42.664;23.266;2023-03-04T02:44:32;94490.94;;;5.63;74.42
58879;BME280;44660;42.664;23.266;2023-03-04T02:46:59;94500.38;;;5.77;74.61
58879;BME280;44660;42.664;23.266;2023-03-04T02:49:27;94470.44;;;5.58;74.52
58879;BME280;44660;42.664;23.266;2023-03-04T02:52:01;94498.34;;;5.72;74.48
58879;BME280;44660;42.664;23.266;2023-03-04T02:54:27;94509.28;;;5.76;74.58
58879;BME280;44660;42.664;23.266;2023-03-04T02:56:56;94499.59;;;5.70;74.80
58879;BME280;44660;42.664;23.266;2023-03-04T02:59:22;94512.19;;;5.68;74.45
58879;BME280;44660;42.664;23.266;2023-03-04T03:01:48;94504.28;;;5.68;74.30
58879;BME280;44660;42.664;23.266;2023-03-04T03:04:14;94483.91;;;5.50;74.16
58879;BME280;44660;42.664;23.266;2023-03-04T03:06:39;94506.88;;;5.43;74.53
58879;BME280;44660;42.664;23.266;2023-03-04T03:09:05;94483.09;;;5.11;75.05
58879;BME280;44660;42.664;23.266;2023-03-04T03:11:31;94502.88;;;5.27;75.29
58879;BME280;44660;42.664;23.266;2023-03-04T03:13:57;94504.72;;;5.26;74.98
58879;BME280;44660;42.664;23.266;2023-03-04T03:16:23;94510.78;;;5.27;75.20
58879;BME280;44660;42.664;23.266;2023-03-04T03:18:48;94480.84;;;5.07;75.06
58879;BME280;44660;42.664;23.266;2023-03-04T03:21:14;94488.94;;;5.13;75.42
58879;BME280;44660;42.664;23.266;2023-03-04T03:23:39;94503.88;;;5.26;75.55
58879;BME280;44660;42.664;23.266;2023-03-04T03:26:05;94470.56;;;4.99;75.50
58879;BME280;44660;42.664;23.266;2023-03-04T03:28:31;94503.97;;;5.12;75.66
58879;BME280;44660;42.664;23.266;2023-03-04T03:30:56;94497.50;;;5.08;75.92
58879;BME280;44660;42.664;23.266;2023-03-04T03:33:22;94492.84;;;5.03;75.97
58879;BME280;44660;42.664;23.266;2023-03-04T03:35:48;94505.41;;;5.08;75.85
58879;BME280;44660;42.664;23.266;2023-03-04T03:38:13;94482.84;;;4.67;76.42
58879;BME280;44660;42.664;23.266;2023-03-04T03:40:39;94484.47;;;4.54;77.15
58879;BME280;44660;42.664;23.266;2023-03-04T03:43:04;94505.28;;;4.76;76.74
58879;BME280;44660;42.664;23.266;2023-03-04T03:45:30;94478.56;;;4.72;76.10
58879;BME280;44660;42.664;23.266;2023-03-04T03:47:55;94498.81;;;4.85;75.70
58879;BME280;44660;42.664;23.266;2023-03-04T03:50:21;94447.84;;;4.46;75.51
58879;BME280;44660;42.664;23.266;2023-03-04T03:52:46;94495.56;;;4.83;75.26
58879;BME280;44660;42.664;23.266;2023-03-04T03:55:11;94483.81;;;4.79;75.26
58879;BME280;44660;42.664;23.266;2023-03-04T03:57:37;94490.28;;;4.83;75.48
58879;BME280;44660;42.664;23.266;2023-03-04T04:00:04;94468.84;;;4.73;75.18
58879;BME280;44660;42.664;23.266;2023-03-04T04:02:30;94469.28;;;4.70;75.32
58879;BME280;44660;42.664;23.266;2023-03-04T04:04:56;94486.63;;;4.84;75.12
58879;BME280;44660;42.664;23.266;2023-03-04T04:07:21;94464.78;;;4.70;75.21
58879;BME280;44660;42.664;23.266;2023-03-04T04:09:47;94482.00;;;4.73;75.26
58879;BME280;44660;42.664;23.266;2023-03-04T04:12:14;94489.09;;;4.79;75.41
58879;BME280;44660;42.664;23.266;2023-03-04T04:14:41;94470.88;;;4.64;75.29
58879;BME280;44660;42.664;23.266;2023-03-04T04:17:06;94480.75;;;4.82;75.29
58879;BME280;44660;42.664;23.266;2023-03-04T04:19:32;94483.38;;;4.82;75.16
58879;BME280;44660;42.664;23.266;2023-03-04T04:21:57;94468.88;;;4.60;75.43
58879;BME280;44660;42.664;23.266;2023-03-04T04:24:23;94466.91;;;4.48;75.55
58879;BME280;44660;42.664;23.266;2023-03-04T04:26:48;94488.34;;;4.58;75.52
58879;BME280;44660;42.664;23.266;2023-03-04T04:29:14;94477.00;;;4.51;75.62
58879;BME280;44660;42.664;23.266;2023-03-04T04:31:40;94472.16;;;4.48;75.39
58879;BME280;44660;42.664;23.266;2023-03-04T04:34:06;94441.38;;;4.35;75.04
58879;BME280;44660;42.664;23.266;2023-03-04T04:36:31;94486.72;;;4.57;75.24
58879;BME280;44660;42.664;23.266;2023-03-04T04:38:57;94476.66;;;4.34;75.38
58879;BME280;44660;42.664;23.266;2023-03-04T04:41:37;94442.84;;;4.11;75.05
58879;BME280;44660;42.664;23.266;2023-03-04T04:44:03;94498.13;;;4.24;75.40
58879;BME280;44660;42.664;23.266;2023-03-04T04:46:29;94493.44;;;4.27;75.19
58879;BME280;44660;42.664;23.266;2023-03-04T04:48:54;94468.56;;;4.09;74.92
58879;BME280;44660;42.664;23.266;2023-03-04T04:51:20;94436.81;;;3.84;75.25
58879;BME280;44660;42.664;23.266;2023-03-04T04:53:46;94471.19;;;3.96;75.22
58879;BME280;44660;42.664;23.266;2023-03-04T04:56:14;94482.75;;;4.01;75.11
58879;BME280;44660;42.664;23.266;2023-03-04T04:58:40;94490.44;;;4.03;75.14
58879;BME280;44660;42.664;23.266;2023-03-04T05:01:05;94469.56;;;3.95;75.11
58879;BME280;44660;42.664;23.266;2023-03-04T05:03:32;94501.38;;;4.06;75.01
58879;BME280;44660;42.664;23.266;2023-03-04T05:05:58;94505.03;;;3.99;75.15
58879;BME280;44660;42.664;23.266;2023-03-04T05:08:24;94451.38;;;3.59;75.13
58879;BME280;44660;42.664;23.266;2023-03-04T05:10:49;94471.00;;;3.70;75.36
58879;BME280;44660;42.664;23.266;2023-03-04T05:13:15;94518.34;;;3.90;75.25
58879;BME280;44660;42.664;23.266;2023-03-04T05:15:41;94506.63;;;3.86;75.17
58879;BME280;44660;42.664;23.266;2023-03-04T05:18:06;94497.91;;;3.79;75.07
58879;BME280;44660;42.664;23.266;2023-03-04T05:20:31;94507.03;;;3.97;75.11
58879;BME280;44660;42.664;23.266;2023-03-04T05:22:57;94414.34;;;3.41;74.74
58879;BME280;44660;42.664;23.266;2023-03-04T05:25:22;94502.56;;;3.90;74.83
58879;BME280;44660;42.664;23.266;2023-03-04T05:27:48;94497.72;;;3.74;75.16
58879;BME280;44660;42.664;23.266;2023-03-04T05:30:13;94524.03;;;3.94;75.25
58879;BME280;44660;42.664;23.266;2023-03-04T05:32:39;94527.28;;;3.96;75.28
58879;BME280;44660;42.664;23.266;2023-03-04T05:35:05;94505.81;;;3.92;75.06
58879;BME280;44660;42.664;23.266;2023-03-04T05:37:31;94524.03;;;4.14;75.12
58879;BME280;44660;42.664;23.266;2023-03-04T05:39:56;94502.97;;;4.07;74.93
58879;BME280;44660;42.664;23.266;2023-03-04T05:42:21;94521.59;;;4.26;75.01
58879;BME280;44660;42.664;23.266;2023-03-04T05:44:47;94516.94;;;4.21;74.87
58879;BME280;44660;42.664;23.266;2023-03-04T05:47:12;94528.06;;;4.23;74.74
58879;BME280;44660;42.664;23.266;2023-03-04T05:49:38;94532.31;;;4.45;74.47
58879;BME280;44660;42.664;23.266;2023-03-04T05:52:03;94528.25;;;4.49;74.32
58879;BME280;44660;42.664;23.266;2023-03-04T05:54:29;94524.03;;;4.41;74.61
58879;BME280;44660;42.664;23.266;2023-03-04T05:56:54;94499.75;;;4.05;75.21
58879;BME280;44660;42.664;23.266;2023-03-04T05:59:20;94524.84;;;4.35;75.52
58879;BME280;44660;42.664;23.266;2023-03-04T06:01:46;94528.66;;;4.39;74.91
58879;BME280;44660;42.664;23.266;2023-03-04T06:04:12;94534.53;;;4.61;74.74
58879;BME280;44660;42.664;23.266;2023-03-04T06:06:37;94525.63;;;4.62;74.49
58879;BME280;44660;42.664;23.266;2023-03-04T06:09:03;94533.28;;;4.70;74.38
58879;BME280;44660;42.664;23.266;2023-03-04T06:11:28;94521.97;;;4.56;74.63
58879;BME280;44660;42.664;23.266;2023-03-04T06:13:54;94523.16;;;4.67;74.77
58879;BME280;44660;42.664;23.266;2023-03-04T06:16:19;94506.34;;;4.62;74.71
58879;BME280;44660;42.664;23.266;2023-03-04T06:18:45;94548.66;;;4.80;74.80
58879;BME280;44660;42.664;23.266;2023-03-04T06:21:10;94528.00;;;4.84;74.17
58879;BME280;44660;42.664;23.266;2023-03-04T06:23:36;94457.38;;;4.47;73.71
58879;BME280;44660;42.664;23.266;2023-03-04T06:26:01;94552.59;;;5.16;73.26
58879;BME280;44660;42.664;23.266;2023-03-04T06:28:27;94557.06;;;5.22;72.93
58879;BME280;44660;42.664;23.266;2023-03-04T06:30:54;94548.31;;;5.29;72.39
58879;BME280;44660;42.664;23.266;2023-03-04T06:33:21;94552.09;;;5.39;72.54
58879;BME280;44660;42.664;23.266;2023-03-04T06:35:46;94554.13;;;5.44;72.47
58879;BME280;44660;42.664;23.266;2023-03-04T06:38:12;94545.81;;;5.47;72.17
58879;BME280;44660;42.664;23.266;2023-03-04T06:40:37;94529.38;;;5.45;71.65
58879;BME280;44660;42.664;23.266;2023-03-04T06:43:03;94556.50;;;5.59;71.37
58879;BME280;44660;42.664;23.266;2023-03-04T06:45:28;94526.13;;;5.43;70.92
58879;BME280;44660;42.664;23.266;2023-03-04T06:47:53;94551.59;;;5.63;70.90
58879;BME280;44660;42.664;23.266;2023-03-04T06:50:19;94554.63;;;5.66;71.17
58879;BME280;44660;42.664;23.266;2023-03-04T06:52:44;94559.25;;;5.71;71.58
58879;BME280;44660;42.664;23.266;2023-03-04T06:55:10;94559.91;;;5.66;71.92
58879;BME280;44660;42.664;23.266;2023-03-04T06:57:37;94540.22;;;5.69;71.08
58879;BME280;44660;42.664;23.266;2023-03-04T07:00:03;94560.75;;;5.99;70.54
58879;BME280;44660;42.664;23.266;2023-03-04T07:02:29;94553.81;;;5.98;70.45
58879;BME280;44660;42.664;23.266;2023-03-04T07:04:54;94555.84;;;6.02;70.03
58879;BME280;44660;42.664;23.266;2023-03-04T07:07:20;94562.91;;;5.77;71.03
58879;BME280;44660;42.664;23.266;2023-03-04T07:09:45;94580.09;;;5.86;71.48
58879;BME280;44660;42.664;23.266;2023-03-04T07:12:11;94572.13;;;5.99;70.89
58879;BME280;44660;42.664;23.266;2023-03-04T07:14:36;94575.91;;;6.10;70.89
58879;BME280;44660;42.664;23.266;2023-03-04T07:17:02;94566.84;;;5.99;71.25
58879;BME280;44660;42.664;23.266;2023-03-04T07:19:27;94563.38;;;5.99;70.83
58879;BME280;44660;42.664;23.266;2023-03-04T07:21:53;94562.88;;;6.15;70.25
58879;BME280;44660;42.664;23.266;2023-03-04T07:24:18;94561.41;;;6.19;70.33
58879;BME280;44660;42.664;23.266;2023-03-04T07:26:44;94563.03;;;6.20;70.45
58879;BME280;44660;42.664;23.266;2023-03-04T07:29:09;94559.13;;;6.30;70.09
58879;BME280;44660;42.664;23.266;2023-03-04T07:31:36;94575.00;;;6.48;69.25
58879;BME280;44660;42.664;23.266;2023-03-04T07:34:04;94564.34;;;6.36;68.91
58879;BME280;44660;42.664;23.266;2023-03-04T07:36:30;94575.06;;;6.42;69.02
58879;BME280;44660;42.664;23.266;2023-03-04T07:38:55;94563.97;;;6.33;69.07
58879;BME280;44660;42.664;23.266;2023-03-04T07:41:24;94565.81;;;6.26;68.68
58879;BME280;44660;42.664;23.266;2023-03-04T07:43:50;94508.88;;;5.79;69.16
58879;BME280;44660;42.664;23.266;2023-03-04T07:46:16;94571.81;;;6.40;69.14
58879;BME280;44660;42.664;23.266;2023-03-04T07:48:42;94548.03;;;6.14;68.65
58879;BME280;44660;42.664;23.266;2023-03-04T07:51:10;94566.16;;;6.36;68.84
58879;BME280;44660;42.664;23.266;2023-03-04T07:53:37;94557.91;;;6.26;68.97
58879;BME280;44660;42.664;23.266;2023-03-04T07:56:03;94566.91;;;6.43;68.88
58879;BME280;44660;42.664;23.266;2023-03-04T07:58:30;94561.91;;;6.60;68.76
58879;BME280;44660;42.664;23.266;2023-03-04T08:00:56;94531.13;;;6.47;68.30
58879;BME280;44660;42.664;23.266;2023-03-04T08:03:21;94562.91;;;6.84;67.48
58879;BME280;44660;42.664;23.266;2023-03-04T08:05:47;94563.19;;;6.95;67.14
58879;BME280;44660;42.664;23.266;2023-03-04T08:08:12;94530.50;;;6.70;67.07
58879;BME280;44660;42.664;23.266;2023-03-04T08:10:37;94548.63;;;6.67;67.51
58879;BME280;44660;42.664;23.266;2023-03-04T08:13:05;94561.22;;;6.90;67.13
58879;BME280;44660;42.664;23.266;2023-03-04T08:15:31;94564.50;;;6.85;67.10
58879;BME280;44660;42.664;23.266;2023-03-04T08:17:57;94558.28;;;6.98;66.65
58879;BME280;44660;42.664;23.266;2023-03-04T08:20:23;94539.19;;;6.96;66.07
58879;BME280;44660;42.664;23.266;2023-03-04T08:22:50;94561.44;;;7.26;65.88
58879;BME280;44660;42.664;23.266;2023-03-04T08:25:15;94519.19;;;7.00;65.56
58879;BME280;44660;42.664;23.266;2023-03-04T08:27:40;94555.41;;;7.37;65.35
58879;BME280;44660;42.664;23.266;2023-03-04T08:30:06;94538.06;;;7.41;64.77
58879;BME280;44660;42.664;23.266;2023-03-04T08:32:32;94546.19;;;7.58;64.26
58879;BME280;44660;42.664;23.266;2023-03-04T08:34:58;94495.41;;;7.19;64.22
58879;BME280;44660;42.664;23.266;2023-03-04T08:37:26;94548.34;;;7.49;64.05
58879;BME280;44660;42.664;23.266;2023-03-04T08:39:52;94541.75;;;7.22;63.91
58879;BME280;44660;42.664;23.266;2023-03-04T08:42:17;94543.66;;;7.33;63.96
58879;BME280;44660;42.664;23.266;2023-03-04T08:44:42;94544.09;;;7.30;64.13
58879;BME280;44660;42.664;23.266;2023-03-04T08:47:08;94541.84;;;7.15;64.57
58879;BME280;44660;42.664;23.266;2023-03-04T08:49:34;94551.44;;;7.28;65.12
58879;BME280;44660;42.664;23.266;2023-03-04T08:52:00;94513.41;;;7.29;64.67
58879;BME280;44660;42.664;23.266;2023-03-04T08:54:26;94542.59;;;7.52;64.60
58879;BME280;44660;42.664;23.266;2023-03-04T08:56:51;94544.06;;;7.67;64.28
58879;BME280;44660;42.664;23.266;2023-03-04T08:59:17;94544.47;;;7.64;64.08
58879;BME280;44660;42.664;23.266;2023-03-04T09:01:43;94493.06;;;7.41;63.72
58879;BME280;44660;42.664;23.266;2023-03-04T09:04:08;94516.13;;;7.52;63.28
58879;BME280;44660;42.664;23.266;2023-03-04T09:06:34;94525.97;;;7.64;62.76
58879;BME280;44660;42.664;23.266;2023-03-04T09:08:59;94541.19;;;7.68;62.83
58879;BME280;44660;42.664;23.266;2023-03-04T09:11:25;94484.56;;;7.39;62.77
58879;BME280;44660;42.664;23.266;2023-03-04T09:13:50;94511.56;;;7.60;62.42
58879;BME280;44660;42.664;23.266;2023-03-04T09:16:16;94528.44;;;7.77;61.72
58879;BME280;44660;42.664;23.266;2023-03-04T09:18:42;94532.53;;;7.73;62.00
58879;BME280;44660;42.664;23.266;2023-03-04T09:21:08;94508.94;;;7.72;61.89
58879;BME280;44660;42.664;23.266;2023-03-04T09:23:34;94481.88;;;7.58;61.38
58879;BME280;44660;42.664;23.266;2023-03-04T09:26:00;94445.03;;;7.44;61.28
58879;BME280;44660;42.664;23.266;2023-03-04T09:28:26;94481.47;;;7.84;60.89
58879;BME280;44660;42.664;23.266;2023-03-04T09:30:52;94505.94;;;8.10;60.58
58879;BME280;44660;42.664;23.266;2023-03-04T09:33:17;94523.34;;;8.30;59.97
58879;BME280;44660;42.664;23.266;2023-03-04T09:35:43;94520.81;;;8.35;60.07
58879;BME280;44660;42.664;23.266;2023-03-04T09:38:09;94496.66;;;8.43;59.53
58879;BME280;44660;42.664;23.266;2023-03-04T09:40:45;94515.00;;;8.80;59.31
58879;BME280;44660;42.664;23.266;2023-03-04T09:43:26;94482.03;;;8.76;58.19
58879;BME280;44660;42.664;23.266;2023-03-04T09:45:56;94453.22;;;8.68;58.42
58879;BME280;44660;42.664;23.266;2023-03-04T09:48:27;94520.31;;;9.33;57.51
58879;BME280;44660;42.664;23.266;2023-03-04T09:56:30;94509.44;;;9.46;56.78
58879;BME280;44660;42.664;23.266;2023-03-04T09:59:29;94502.34;;;9.64;56.29
58879;BME280;44660;42.664;23.266;2023-03-04T10:01:58;94497.78;;;9.76;56.22
58879;BME280;44660;42.664;23.266;2023-03-04T10:04:29;94489.75;;;9.88;55.90
58879;BME280;44660;42.664;23.266;2023-03-04T10:07:00;94486.47;;;9.98;55.37
58879;BME280;44660;42.664;23.266;2023-03-04T10:12:21;94476.66;;;10.33;54.55
58879;BME280;44660;42.664;23.266;2023-03-04T10:14:58;94467.81;;;10.44;54.24
58879;BME280;44660;42.664;23.266;2023-03-04T10:17:36;94466.00;;;10.16;54.50
58879;BME280;44660;42.664;23.266;2023-03-04T10:20:03;94480.75;;;10.06;54.89
58879;BME280;44660;42.664;23.266;2023-03-04T10:25:16;94467.63;;;10.17;53.64
58879;BME280;44660;42.664;23.266;2023-03-04T10:27:47;94467.16;;;10.20;53.72
58879;BME280;44660;42.664;23.266;2023-03-04T10:30:47;94467.63;;;10.00;54.54
58879;BME280;44660;42.664;23.266;2023-03-04T10:33:19;94399.84;;;9.63;55.09
58879;BME280;44660;42.664;23.266;2023-03-04T10:35:54;94457.25;;;9.98;55.16
58879;BME280;44660;42.664;23.266;2023-03-04T10:38:23;94454.22;;;9.77;55.54
58879;BME280;44660;42.664;23.266;2023-03-04T10:40:49;94430.38;;;9.48;55.86
58879;BME280;44660;42.664;23.266;2023-03-04T10:43:16;94420.41;;;9.56;55.14
58879;BME280;44660;42.664;23.266;2023-03-04T10:45:42;94444.38;;;9.61;55.48
58879;BME280;44660;42.664;23.266;2023-03-04T10:48:18;94433.47;;;9.57;56.17
58879;BME280;44660;42.664;23.266;2023-03-04T10:50:44;94436.81;;;9.53;56.17
58879;BME280;44660;42.664;23.266;2023-03-04T10:53:23;94377.06;;;9.04;55.86
58879;BME280;44660;42.664;23.266;2023-03-04T10:55:49;94407.06;;;9.22;56.66
58879;BME280;44660;42.664;23.266;2023-03-04T10:58:16;94434.69;;;9.38;57.56
58879;BME280;44660;42.664;23.266;2023-03-04T11:00:58;94423.84;;;9.39;57.43
58879;BME280;44660;42.664;23.266;2023-03-04T11:06:06;94418.63;;;9.44;57.04
58879;BME280;44660;42.664;23.266;2023-03-04T11:08:34;94378.66;;;9.05;59.11
58879;BME280;44660;42.664;23.266;2023-03-04T11:10:59;94392.63;;;9.01;59.42
58879;BME280;44660;42.664;23.266;2023-03-04T11:13:26;94380.78;;;8.91;59.95
58879;BME280;44660;42.664;23.266;2023-03-04T11:16:01;94401.31;;;9.25;58.69
58879;BME280;44660;42.664;23.266;2023-03-04T11:18:43;94397.44;;;9.15;58.59
58879;BME280;44660;42.664;23.266;2023-03-04T11:21:16;94385.97;;;8.98;59.27
58879;BME280;44660;42.664;23.266;2023-03-04T11:26:22;94355.09;;;9.09;58.24
58879;BME280;44660;42.664;23.266;2023-03-04T11:31:31;94381.00;;;9.47;59.41
58879;BME280;44660;42.664;23.266;2023-03-04T11:34:14;94364.50;;;9.28;59.79
58879;BME280;44660;42.664;23.266;2023-03-04T11:39:33;94333.84;;;9.55;59.27
58879;BME280;44660;42.664;23.266;2023-03-04T11:44:50;94341.50;;;9.68;57.72
58879;BME280;44660;42.664;23.266;2023-03-04T11:55:32;94356.56;;;9.62;57.61
58879;BME280;44660;42.664;23.266;2023-03-04T12:01:20;94356.41;;;9.69;57.62
58879;BME280;44660;42.664;23.266;2023-03-04T12:06:20;94351.41;;;9.73;57.52
58879;BME280;44660;42.664;23.266;2023-03-04T12:11:33;94344.09;;;9.63;57.39
58879;BME280;44660;42.664;23.266;2023-03-04T12:14:19;94293.97;;;9.50;57.10
58879;BME280;44660;42.664;23.266;2023-03-04T12:16:56;94334.88;;;9.88;56.88
58879;BME280;44660;42.664;23.266;2023-03-04T12:19:29;94336.28;;;9.90;56.78
58879;BME280;44660;42.664;23.266;2023-03-04T12:25:22;94324.66;;;9.96;56.49
58879;BME280;44660;42.664;23.266;2023-03-04T12:28:11;94321.16;;;9.91;56.62
58879;BME280;44660;42.664;23.266;2023-03-04T12:31:11;94324.84;;;9.90;56.42
58879;BME280;44660;42.664;23.266;2023-03-04T12:34:26;94312.94;;;9.92;56.29
58879;BME280;44660;42.664;23.266;2023-03-04T12:37:18;94314.22;;;10.07;55.61
58879;BME280;44660;42.664;23.266;2023-03-04T12:45:53;94303.81;;;10.05;55.91
58879;BME280;44660;42.664;23.266;2023-03-04T12:48:42;94300.81;;;10.19;55.33
58879;BME280;44660;42.664;23.266;2023-03-04T12:51:31;94295.06;;;10.27;55.22
58879;BME280;44660;42.664;23.266;2023-03-04T12:54:39;94268.53;;;9.71;55.76
58879;BME280;44660;42.664;23.266;2023-03-04T12:57:15;94289.97;;;9.64;56.68
58879;BME280;44660;42.664;23.266;2023-03-04T13:07:58;94275.06;;;9.63;56.98
58879;BME280;44660;42.664;23.266;2023-03-04T13:10:27;94268.41;;;9.60;56.57
58879;BME280;44660;42.664;23.266;2023-03-04T13:12:57;94269.97;;;9.78;56.48
58879;BME280;44660;42.664;23.266;2023-03-04T13:18:01;94267.25;;;9.73;57.03
58879;BME280;44660;42.664;23.266;2023-03-04T13:20:39;94269.34;;;9.71;56.85
58879;BME280;44660;42.664;23.266;2023-03-04T13:38:24;94259.53;;;9.55;57.19
58879;BME280;44660;42.664;23.266;2023-03-04T13:43:44;94251.81;;;9.53;56.96
58879;BME280;44660;42.664;23.266;2023-03-04T13:56:35;94245.00;;;9.40;58.88
58879;BME280;44660;42.664;23.266;2023-03-04T14:04:27;94238.00;;;9.34;59.64
58879;BME280;44660;42.664;23.266;2023-03-04T14:06:54;94180.22;;;9.02;59.02
58879;BME280;44660;42.664;23.266;2023-03-04T14:09:30;94219.69;;;9.32;58.91
58879;BME280;44660;42.664;23.266;2023-03-04T14:11:58;94233.91;;;9.26;59.03
58879;BME280;44660;42.664;23.266;2023-03-04T14:14:35;94229.19;;;9.28;59.18
58879;BME280;44660;42.664;23.266;2023-03-04T14:17:05;94200.72;;;9.24;58.68
58879;BME280;44660;42.664;23.266;2023-03-04T14:19:32;94224.75;;;9.51;58.45
58879;BME280;44660;42.664;23.266;2023-03-04T14:22:17;94226.56;;;9.51;58.40
58879;BME280;44660;42.664;23.266;2023-03-04T14:27:30;94223.06;;;9.45;58.72
58879;BME280;44660;42.664;23.266;2023-03-04T14:29:59;94217.00;;;9.50;58.86
58879;BME280;44660;42.664;23.266;2023-03-04T14:32:26;94200.53;;;9.47;58.53
58879;BME280;44660;42.664;23.266;2023-03-04T14:34:57;94206.31;;;9.61;57.86
58879;BME280;44660;42.664;23.266;2023-03-04T14:37:25;94217.06;;;9.55;57.93
58879;BME280;44660;42.664;23.266;2023-03-04T14:39:56;94197.28;;;9.62;57.96
58879;BME280;44660;42.664;23.266;2023-03-04T14:42:26;94197.75;;;9.76;58.31
58879;BME280;44660;42.664;23.266;2023-03-04T14:44:54;94196.53;;;9.67;58.94
58879;BME280;44660;42.664;23.266;2023-03-04T14:49:55;94183.00;;;9.46;58.41
58879;BME280;44660;42.664;23.266;2023-03-04T14:52:39;94197.91;;;9.70;58.30